Quantum Of The Seas — C6BH8 — position and weather

sailwx.info

Track history (hours):
 
Tides and Currents Weather Stations Pressure Air Temp Water Temp Dewpoint Dewpoint Depression Visibility Wind Speed Wind Dir Waves Ship Positions

Quantum Of The Seas

Last reported at 2017-Oct-21 21:00 UTC. Time now 2017-Oct-22 08:18 UTC.
Position N 32°48' E 125°48'.

Length 348 m; draft 9 m.

Type: Passenger vessel. MMSI: 311000267.

Wind from 350 at 48 knots

Barometer 1004.0 mb
Visibility: greater than 10.8 NM

Date/timePositionNaut miles runAvg speedWind from/ knotsBaromVisibWave heightAir tempDewpointWater temp
2017-Oct-21 21:00N 32°48' E 125°48'5618.6 350 / 481004.010.8
2017-Oct-21 18:00N 32°42' E 126°54'112 4.9 040 / 451001.910.8 20.0
2017-Oct-20 19:00N 32°30' E 129°06'35115.0 030 / 401006.010.8
2017-Oct-19 19:35N 31°06' E 122°25'215.0
2017-Oct-19 19:26N 31°06' E 122°23'613.7
2017-Oct-19 19:00N 31°07' E 122°16'815.2
2017-Oct-19 18:30N 31°12' E 122°09'713.3
2017-Oct-19 18:00N 31°14' E 122°02'713.9
2017-Oct-19 17:31N 31°16' E 121°54'612.2
2017-Oct-19 17:00N 31°18' E 121°47'5 9.5
2017-Oct-19 16:30N 31°20' E 121°42'3 6.6
2017-Oct-19 16:00N 31°21' E 121°39'4 8.4
2017-Oct-19 15:30N 31°23' E 121°34'4 7.5
2017-Oct-19 15:00N 31°25' E 121°30'0 0.1
2017-Oct-19 14:28N 31°25' E 121°30'0 0.0
2017-Oct-19 13:58N 31°25' E 121°30'0 0.0
2017-Oct-19 13:28N 31°25' E 121°30'0 0.0
2017-Oct-19 12:58N 31°25' E 121°30'0 0.0
2017-Oct-19 12:28N 31°25' E 121°30'0 0.0
2017-Oct-19 11:58N 31°25' E 121°30'0 0.0
2017-Oct-19 11:28N 31°25' E 121°30'0 0.0
2017-Oct-19 10:55N 31°25' E 121°30'0 0.0
2017-Oct-19 10:28N 31°25' E 121°30'0 0.0
2017-Oct-19 09:58N 31°25' E 121°30'0 0.0
2017-Oct-19 09:22N 31°25' E 121°30'0 0.0
2017-Oct-19 08:58N 31°25' E 121°30'0 0.0
2017-Oct-19 08:25N 31°25' E 121°30'0 0.0
2017-Oct-19 07:58N 31°25' E 121°30'0 0.0
2017-Oct-19 07:28N 31°25' E 121°30'0 0.0
2017-Oct-19 06:55N 31°25' E 121°30'0 0.0
2017-Oct-19 06:28N 31°25' E 121°30'0 0.0
2017-Oct-19 05:52N 31°25' E 121°30'0 0.0
2017-Oct-19 05:28N 31°25' E 121°30'0 0.0
2017-Oct-19 04:46N 31°25' E 121°30'0 0.0
2017-Oct-19 04:28N 31°25' E 121°30'0 0.0
2017-Oct-19 03:58N 31°25' E 121°30'0 0.0
2017-Oct-19 03:25N 31°25' E 121°30'0 0.0
2017-Oct-19 02:58N 31°25' E 121°30'0 0.0
2017-Oct-19 02:28N 31°25' E 121°30'0 0.0
2017-Oct-19 01:58N 31°25' E 121°30'0 0.0
2017-Oct-19 01:28N 31°25' E 121°30'0 0.0
2017-Oct-19 00:59N 31°25' E 121°30'1 2.2
2017-Oct-19 00:30N 31°24' E 121°31'4 8.1
2017-Oct-19 00:00N 31°23' E 121°36'611.5
2017-Oct-18 23:30N 31°20' E 121°42'4 7.8
2017-Oct-18 23:00N 31°18' E 121°46'3 6.2
2017-Oct-18 22:30N 31°17' E 121°49'510.9
2017-Oct-18 22:00N 31°16' E 121°55'611.7
2017-Oct-18 21:30N 31°15' E 122°02'510.7
2017-Oct-18 21:00N 31°13' E 122°08'611.1
2017-Oct-18 20:30N 31°09' E 122°13'612.3
2017-Oct-18 20:00N 31°06' E 122°19'611.4
2017-Oct-18 19:30N 31°06' E 122°26'40017.8
2017-Oct-17 21:00N 30°54' E 130°12'   040 / 201012.027.0
2017-Oct-13 18:00N 31°06' E 123°18'4714.4 040 / 301015.027.0
2017-Oct-13 14:43N 31°06' E 122°23'413.5
2017-Oct-13 14:27N 31°06' E 122°19'711.5
2017-Oct-13 13:53N 31°10' E 122°12'412.0
2017-Oct-13 13:30N 31°12' E 122°08'611.7
2017-Oct-13 13:00N 31°14' E 122°02'511.0
2017-Oct-13 12:30N 31°15' E 121°55'510.5
2017-Oct-13 12:00N 31°17' E 121°50'510.8
2017-Oct-13 11:30N 31°19' E 121°44'611.8
2017-Oct-13 11:00N 31°22' E 121°38'4 8.4
2017-Oct-13 10:30N 31°24' E 121°33'3 5.6
2017-Oct-13 10:00N 31°25' E 121°30'0 0.0
2017-Oct-13 09:28N 31°25' E 121°30'0 0.0
2017-Oct-13 08:58N 31°25' E 121°30'0 0.0
2017-Oct-13 08:28N 31°25' E 121°30'0 0.0
2017-Oct-13 07:58N 31°25' E 121°30'0 0.0
2017-Oct-13 07:28N 31°25' E 121°30'0 0.0
2017-Oct-13 06:58N 31°25' E 121°30'0 0.0
2017-Oct-13 06:28N 31°25' E 121°30'0 0.0
2017-Oct-13 05:58N 31°25' E 121°30'0 0.0
2017-Oct-13 05:28N 31°25' E 121°30'0 0.0
2017-Oct-13 04:58N 31°25' E 121°30'0 0.0
2017-Oct-13 04:28N 31°25' E 121°30'0 0.0
2017-Oct-13 03:55N 31°25' E 121°30'0 0.0
2017-Oct-13 03:28N 31°25' E 121°30'0 0.0
2017-Oct-13 02:58N 31°25' E 121°30'0 0.0
2017-Oct-13 02:28N 31°25' E 121°30'0 0.0
2017-Oct-13 01:58N 31°25' E 121°30'0 0.0
2017-Oct-13 01:28N 31°25' E 121°30'0 0.0
2017-Oct-13 00:58N 31°25' E 121°30'0 0.0
2017-Oct-13 00:28N 31°25' E 121°30'0 0.0
2017-Oct-12 23:58N 31°25' E 121°30'0 0.0
2017-Oct-12 23:28N 31°25' E 121°30'0 0.0
2017-Oct-12 22:58N 31°25' E 121°30'0 0.0
2017-Oct-12 22:28N 31°25' E 121°30'0 0.0
2017-Oct-12 21:58N 31°25' E 121°30'0 0.0
2017-Oct-12 21:28N 31°25' E 121°30'0 0.1
2017-Oct-12 21:00N 31°25' E 121°30'2 3.8
2017-Oct-12 20:30N 31°24' E 121°32'5 9.7
2017-Oct-12 20:00N 31°22' E 121°37'510.6
2017-Oct-12 19:30N 31°19' E 121°43'611.1
2017-Oct-12 19:00N 31°17' E 121°49'611.3
2017-Oct-12 18:30N 31°16' E 121°55'611.6
2017-Oct-12 18:00N 31°15' E 122°02'612.2
2017-Oct-12 17:30N 31°12' E 122°08'611.2
2017-Oct-12 17:00N 31°09' E 122°14'4 8.9
2017-Oct-12 16:30N 31°06' E 122°18'611.2
2017-Oct-12 16:00N 31°06' E 122°25'  
Track history (hours):
 
Tides and Currents Weather Stations Pressure Air Temp Water Temp Dewpoint Dewpoint Depression Visibility Wind Speed Wind Dir Waves Ship Positions

Quantum Of The Seas

Last reported at 2017-Oct-21 21:00 UTC. Time now 2017-Oct-22 08:18 UTC.
Position N 32°48' E 125°48'.

Length 348 m; draft 9 m.

Type: Passenger vessel. MMSI: 311000267.

Wind from 350 at 48 knots

Barometer 1004.0 mb
Visibility: greater than 10.8 NM

Date/timePositionNaut miles runAvg speedWind from/ knotsBaromVisibWave heightAir tempDewpointWater temp
2017-Oct-21 21:00N 32°48' E 125°48'5618.6 350 / 481004.010.8
2017-Oct-21 18:00N 32°42' E 126°54'112 4.9 040 / 451001.910.8 20.0
2017-Oct-20 19:00N 32°30' E 129°06'35115.0 030 / 401006.010.8
2017-Oct-19 19:35N 31°06' E 122°25'215.0
2017-Oct-19 19:26N 31°06' E 122°23'613.7
2017-Oct-19 19:00N 31°07' E 122°16'815.2
2017-Oct-19 18:30N 31°12' E 122°09'713.3
2017-Oct-19 18:00N 31°14' E 122°02'713.9
2017-Oct-19 17:31N 31°16' E 121°54'612.2
2017-Oct-19 17:00N 31°18' E 121°47'5 9.5
2017-Oct-19 16:30N 31°20' E 121°42'3 6.6
2017-Oct-19 16:00N 31°21' E 121°39'4 8.4
2017-Oct-19 15:30N 31°23' E 121°34'4 7.5
2017-Oct-19 15:00N 31°25' E 121°30'0 0.1
2017-Oct-19 14:28N 31°25' E 121°30'0 0.0
2017-Oct-19 13:58N 31°25' E 121°30'0 0.0
2017-Oct-19 13:28N 31°25' E 121°30'0 0.0
2017-Oct-19 12:58N 31°25' E 121°30'0 0.0
2017-Oct-19 12:28N 31°25' E 121°30'0 0.0
2017-Oct-19 11:58N 31°25' E 121°30'0 0.0
2017-Oct-19 11:28N 31°25' E 121°30'0 0.0
2017-Oct-19 10:55N 31°25' E 121°30'0 0.0
2017-Oct-19 10:28N 31°25' E 121°30'0 0.0
2017-Oct-19 09:58N 31°25' E 121°30'0 0.0
2017-Oct-19 09:22N 31°25' E 121°30'0 0.0
2017-Oct-19 08:58N 31°25' E 121°30'0 0.0
2017-Oct-19 08:25N 31°25' E 121°30'0 0.0
2017-Oct-19 07:58N 31°25' E 121°30'0 0.0
2017-Oct-19 07:28N 31°25' E 121°30'0 0.0
2017-Oct-19 06:55N 31°25' E 121°30'0 0.0
2017-Oct-19 06:28N 31°25' E 121°30'0 0.0
2017-Oct-19 05:52N 31°25' E 121°30'0 0.0
2017-Oct-19 05:28N 31°25' E 121°30'0 0.0
2017-Oct-19 04:46N 31°25' E 121°30'0 0.0
2017-Oct-19 04:28N 31°25' E 121°30'0 0.0
2017-Oct-19 03:58N 31°25' E 121°30'0 0.0
2017-Oct-19 03:25N 31°25' E 121°30'0 0.0
2017-Oct-19 02:58N 31°25' E 121°30'0 0.0
2017-Oct-19 02:28N 31°25' E 121°30'0 0.0
2017-Oct-19 01:58N 31°25' E 121°30'0 0.0
2017-Oct-19 01:28N 31°25' E 121°30'0 0.0
2017-Oct-19 00:59N 31°25' E 121°30'1 2.2
2017-Oct-19 00:30N 31°24' E 121°31'4 8.1
2017-Oct-19 00:00N 31°23' E 121°36'611.5
2017-Oct-18 23:30N 31°20' E 121°42'4 7.8
2017-Oct-18 23:00N 31°18' E 121°46'3 6.2
2017-Oct-18 22:30N 31°17' E 121°49'510.9
2017-Oct-18 22:00N 31°16' E 121°55'611.7
2017-Oct-18 21:30N 31°15' E 122°02'510.7
2017-Oct-18 21:00N 31°13' E 122°08'611.1
2017-Oct-18 20:30N 31°09' E 122°13'612.3
2017-Oct-18 20:00N 31°06' E 122°19'611.4
2017-Oct-18 19:30N 31°06' E 122°26'40017.8
2017-Oct-17 21:00N 30°54' E 130°12'   040 / 201012.027.0
2017-Oct-13 18:00N 31°06' E 123°18'4714.4 040 / 301015.027.0
2017-Oct-13 14:43N 31°06' E 122°23'413.5
2017-Oct-13 14:27N 31°06' E 122°19'711.5
2017-Oct-13 13:53N 31°10' E 122°12'412.0
2017-Oct-13 13:30N 31°12' E 122°08'611.7
2017-Oct-13 13:00N 31°14' E 122°02'511.0
2017-Oct-13 12:30N 31°15' E 121°55'510.5
2017-Oct-13 12:00N 31°17' E 121°50'510.8
2017-Oct-13 11:30N 31°19' E 121°44'611.8
2017-Oct-13 11:00N 31°22' E 121°38'4 8.4
2017-Oct-13 10:30N 31°24' E 121°33'3 5.6
2017-Oct-13 10:00N 31°25' E 121°30'0 0.0
2017-Oct-13 09:28N 31°25' E 121°30'0 0.0
2017-Oct-13 08:58N 31°25' E 121°30'0 0.0
2017-Oct-13 08:28N 31°25' E 121°30'0 0.0
2017-Oct-13 07:58N 31°25' E 121°30'0 0.0
2017-Oct-13 07:28N 31°25' E 121°30'0 0.0
2017-Oct-13 06:58N 31°25' E 121°30'0 0.0
2017-Oct-13 06:28N 31°25' E 121°30'0 0.0
2017-Oct-13 05:58N 31°25' E 121°30'0 0.0
2017-Oct-13 05:28N 31°25' E 121°30'0 0.0
2017-Oct-13 04:58N 31°25' E 121°30'0 0.0
2017-Oct-13 04:28N 31°25' E 121°30'0 0.0
2017-Oct-13 03:55N 31°25' E 121°30'0 0.0
2017-Oct-13 03:28N 31°25' E 121°30'0 0.0
2017-Oct-13 02:58N 31°25' E 121°30'0 0.0
2017-Oct-13 02:28N 31°25' E 121°30'0 0.0
2017-Oct-13 01:58N 31°25' E 121°30'0 0.0
2017-Oct-13 01:28N 31°25' E 121°30'0 0.0
2017-Oct-13 00:58N 31°25' E 121°30'0 0.0
2017-Oct-13 00:28N 31°25' E 121°30'0 0.0
2017-Oct-12 23:58N 31°25' E 121°30'0 0.0
2017-Oct-12 23:28N 31°25' E 121°30'0 0.0
2017-Oct-12 22:58N 31°25' E 121°30'0 0.0
2017-Oct-12 22:28N 31°25' E 121°30'0 0.0
2017-Oct-12 21:58N 31°25' E 121°30'0 0.0
2017-Oct-12 21:28N 31°25' E 121°30'0 0.1
2017-Oct-12 21:00N 31°25' E 121°30'2 3.8
2017-Oct-12 20:30N 31°24' E 121°32'5 9.7
2017-Oct-12 20:00N 31°22' E 121°37'510.6
2017-Oct-12 19:30N 31°19' E 121°43'611.1
2017-Oct-12 19:00N 31°17' E 121°49'611.3
2017-Oct-12 18:30N 31°16' E 121°55'611.6
2017-Oct-12 18:00N 31°15' E 122°02'612.2
2017-Oct-12 17:30N 31°12' E 122°08'611.2
2017-Oct-12 17:00N 31°09' E 122°14'4 8.9
2017-Oct-12 16:30N 31°06' E 122°18'611.2
2017-Oct-12 16:00N 31°06' E 122°25'  

Dump ship's entire track history